sensor_id;sensor_type;location;lat;lon;timestamp;temperature;humidity
41481;DHT22;27217;51.220;5.308;2023-12-22T00:00:11;8.80;99.90
41481;DHT22;27217;51.220;5.308;2023-12-22T00:02:37;8.80;99.90
41481;DHT22;27217;51.220;5.308;2023-12-22T00:05:03;8.70;99.90
41481;DHT22;27217;51.220;5.308;2023-12-22T00:07:29;8.40;99.90
41481;DHT22;27217;51.220;5.308;2023-12-22T00:09:54;8.30;99.90
41481;DHT22;27217;51.220;5.308;2023-12-22T00:12:23;8.30;99.90
41481;DHT22;27217;51.220;5.308;2023-12-22T00:14:49;8.20;99.90
41481;DHT22;27217;51.220;5.308;2023-12-22T00:17:14;8.30;99.90
41481;DHT22;27217;51.220;5.308;2023-12-22T00:19:40;8.30;99.90
41481;DHT22;27217;51.220;5.308;2023-12-22T00:22:06;8.30;99.90
41481;DHT22;27217;51.220;5.308;2023-12-22T00:24:32;8.40;99.90
41481;DHT22;27217;51.220;5.308;2023-12-22T00:26:57;8.40;99.90
41481;DHT22;27217;51.220;5.308;2023-12-22T00:29:23;8.50;99.90
41481;DHT22;27217;51.220;5.308;2023-12-22T00:31:52;8.30;99.90
41481;DHT22;27217;51.220;5.308;2023-12-22T00:34:18;8.40;99.90
41481;DHT22;27217;51.220;5.308;2023-12-22T00:36:45;8.50;99.90
41481;DHT22;27217;51.220;5.308;2023-12-22T00:39:10;8.60;99.90
41481;DHT22;27217;51.220;5.308;2023-12-22T00:41:36;8.60;99.90
41481;DHT22;27217;51.220;5.308;2023-12-22T00:44:02;8.70;99.90
41481;DHT22;27217;51.220;5.308;2023-12-22T00:46:27;8.70;99.90
41481;DHT22;27217;51.220;5.308;2023-12-22T00:48:53;8.80;99.90
41481;DHT22;27217;51.220;5.308;2023-12-22T00:51:19;8.90;99.90
41481;DHT22;27217;51.220;5.308;2023-12-22T00:53:45;8.90;99.90
41481;DHT22;27217;51.220;5.308;2023-12-22T00:56:10;8.40;99.90
41481;DHT22;27217;51.220;5.308;2023-12-22T00:58:39;8.00;99.90
41481;DHT22;27217;51.220;5.308;2023-12-22T01:01:05;7.60;99.90
41481;DHT22;27217;51.220;5.308;2023-12-22T01:03:39;7.40;99.90
41481;DHT22;27217;51.220;5.308;2023-12-22T01:06:05;7.40;99.90
41481;DHT22;27217;51.220;5.308;2023-12-22T01:08:31;7.30;99.90
41481;DHT22;27217;51.220;5.308;2023-12-22T01:10:57;7.30;99.90
41481;DHT22;27217;51.220;5.308;2023-12-22T01:13:22;7.20;99.90
41481;DHT22;27217;51.220;5.308;2023-12-22T01:15:48;7.30;99.90
41481;DHT22;27217;51.220;5.308;2023-12-22T01:18:14;7.30;99.90
41481;DHT22;27217;51.220;5.308;2023-12-22T01:20:40;7.40;99.90
41481;DHT22;27217;51.220;5.308;2023-12-22T01:23:05;7.40;99.90
41481;DHT22;27217;51.220;5.308;2023-12-22T01:25:31;7.40;99.90
41481;DHT22;27217;51.220;5.308;2023-12-22T01:27:57;7.30;99.90
41481;DHT22;27217;51.220;5.308;2023-12-22T01:30:25;7.40;99.90
41481;DHT22;27217;51.220;5.308;2023-12-22T01:32:51;7.60;99.90
41481;DHT22;27217;51.220;5.308;2023-12-22T01:35:20;7.60;99.90
41481;DHT22;27217;51.220;5.308;2023-12-22T01:37:45;7.70;99.90
41481;DHT22;27217;51.220;5.308;2023-12-22T01:40:13;7.70;99.90
41481;DHT22;27217;51.220;5.308;2023-12-22T01:42:39;7.70;99.90
41481;DHT22;27217;51.220;5.308;2023-12-22T01:45:06;7.70;99.90
41481;DHT22;27217;51.220;5.308;2023-12-22T01:47:33;7.70;99.90
41481;DHT22;27217;51.220;5.308;2023-12-22T01:50:02;7.70;99.90
41481;DHT22;27217;51.220;5.308;2023-12-22T01:52:28;7.70;99.90
41481;DHT22;27217;51.220;5.308;2023-12-22T01:54:54;7.80;99.90
41481;DHT22;27217;51.220;5.308;2023-12-22T01:57:21;7.90;99.90
41481;DHT22;27217;51.220;5.308;2023-12-22T01:59:48;7.90;99.90
41481;DHT22;27217;51.220;5.308;2023-12-22T02:02:15;8.10;99.90
41481;DHT22;27217;51.220;5.308;2023-12-22T02:04:42;8.10;99.90
41481;DHT22;27217;51.220;5.308;2023-12-22T02:07:09;8.20;99.90
41481;DHT22;27217;51.220;5.308;2023-12-22T02:09:36;8.40;99.90
41481;DHT22;27217;51.220;5.308;2023-12-22T02:12:03;8.40;99.90
41481;DHT22;27217;51.220;5.308;2023-12-22T02:14:28;8.40;99.90
41481;DHT22;27217;51.220;5.308;2023-12-22T02:17:20;8.50;99.90
41481;DHT22;27217;51.220;5.308;2023-12-22T02:19:49;8.50;99.90
41481;DHT22;27217;51.220;5.308;2023-12-22T02:22:16;8.50;99.90
41481;DHT22;27217;51.220;5.308;2023-12-22T02:24:42;8.60;99.90
41481;DHT22;27217;51.220;5.308;2023-12-22T02:30:01;7.90;99.90
41481;DHT22;27217;51.220;5.308;2023-12-22T02:32:31;7.70;99.90
41481;DHT22;27217;51.220;5.308;2023-12-22T02:34:58;7.50;99.90
41481;DHT22;27217;51.220;5.308;2023-12-22T02:37:24;7.50;99.90
41481;DHT22;27217;51.220;5.308;2023-12-22T02:39:52;7.40;99.90
41481;DHT22;27217;51.220;5.308;2023-12-22T02:42:19;7.50;99.90
41481;DHT22;27217;51.220;5.308;2023-12-22T02:44:45;7.50;99.90
41481;DHT22;27217;51.220;5.308;2023-12-22T02:47:11;7.50;99.90
41481;DHT22;27217;51.220;5.308;2023-12-22T02:49:37;7.50;99.90
41481;DHT22;27217;51.220;5.308;2023-12-22T02:52:06;7.60;99.90
41481;DHT22;27217;51.220;5.308;2023-12-22T02:54:31;7.60;99.90
41481;DHT22;27217;51.220;5.308;2023-12-22T02:56:58;7.60;99.90
41481;DHT22;27217;51.220;5.308;2023-12-22T02:59:25;7.70;99.90
41481;DHT22;27217;51.220;5.308;2023-12-22T03:01:53;7.90;99.90
41481;DHT22;27217;51.220;5.308;2023-12-22T03:04:18;7.90;99.90
41481;DHT22;27217;51.220;5.308;2023-12-22T03:06:44;7.90;99.90
41481;DHT22;27217;51.220;5.308;2023-12-22T03:09:10;8.10;99.90
41481;DHT22;27217;51.220;5.308;2023-12-22T03:11:35;8.20;99.90
41481;DHT22;27217;51.220;5.308;2023-12-22T03:14:01;8.30;99.90
41481;DHT22;27217;51.220;5.308;2023-12-22T03:16:27;8.40;99.90
41481;DHT22;27217;51.220;5.308;2023-12-22T03:18:52;8.60;99.90
41481;DHT22;27217;51.220;5.308;2023-12-22T03:21:19;8.60;99.90
41481;DHT22;27217;51.220;5.308;2023-12-22T03:23:45;8.60;99.90
41481;DHT22;27217;51.220;5.308;2023-12-22T03:26:11;8.60;99.90
41481;DHT22;27217;51.220;5.308;2023-12-22T03:28:36;8.60;99.90
41481;DHT22;27217;51.220;5.308;2023-12-22T03:31:03;8.60;99.90
41481;DHT22;27217;51.220;5.308;2023-12-22T03:33:29;8.50;99.90
41481;DHT22;27217;51.220;5.308;2023-12-22T03:35:55;8.40;99.90
41481;DHT22;27217;51.220;5.308;2023-12-22T03:38:20;8.30;99.90
41481;DHT22;27217;51.220;5.308;2023-12-22T03:40:49;8.10;99.90
41481;DHT22;27217;51.220;5.308;2023-12-22T03:43:14;8.00;99.90
41481;DHT22;27217;51.220;5.308;2023-12-22T03:45:43;8.00;99.90
41481;DHT22;27217;51.220;5.308;2023-12-22T03:48:08;8.00;99.90
41481;DHT22;27217;51.220;5.308;2023-12-22T03:50:34;8.00;99.90
41481;DHT22;27217;51.220;5.308;2023-12-22T03:53:00;7.90;99.90
41481;DHT22;27217;51.220;5.308;2023-12-22T03:55:26;8.00;99.90
41481;DHT22;27217;51.220;5.308;2023-12-22T03:57:51;8.00;99.90
41481;DHT22;27217;51.220;5.308;2023-12-22T04:00:17;8.10;99.90
41481;DHT22;27217;51.220;5.308;2023-12-22T04:02:43;8.20;99.90
41481;DHT22;27217;51.220;5.308;2023-12-22T04:05:12;8.30;99.90
41481;DHT22;27217;51.220;5.308;2023-12-22T04:07:38;8.30;99.90
41481;DHT22;27217;51.220;5.308;2023-12-22T04:10:04;8.50;99.90
41481;DHT22;27217;51.220;5.308;2023-12-22T04:12:30;8.50;99.90
41481;DHT22;27217;51.220;5.308;2023-12-22T04:14:55;8.60;99.90
41481;DHT22;27217;51.220;5.308;2023-12-22T04:17:21;8.60;99.90
41481;DHT22;27217;51.220;5.308;2023-12-22T04:19:47;8.70;99.90
41481;DHT22;27217;51.220;5.308;2023-12-22T04:22:12;8.80;99.90
41481;DHT22;27217;51.220;5.308;2023-12-22T04:24:38;8.80;99.90
41481;DHT22;27217;51.220;5.308;2023-12-22T04:27:04;8.90;99.90
41481;DHT22;27217;51.220;5.308;2023-12-22T04:29:30;8.90;99.90
41481;DHT22;27217;51.220;5.308;2023-12-22T04:31:55;8.90;99.90
41481;DHT22;27217;51.220;5.308;2023-12-22T04:34:21;8.90;99.90
41481;DHT22;27217;51.220;5.308;2023-12-22T04:36:49;8.80;99.90
41481;DHT22;27217;51.220;5.308;2023-12-22T04:39:15;8.90;99.90
41481;DHT22;27217;51.220;5.308;2023-12-22T04:41:41;8.80;99.90
41481;DHT22;27217;51.220;5.308;2023-12-22T04:44:06;8.90;99.90
41481;DHT22;27217;51.220;5.308;2023-12-22T04:46:32;9.00;99.90
41481;DHT22;27217;51.220;5.308;2023-12-22T04:48:58;9.00;99.90
41481;DHT22;27217;51.220;5.308;2023-12-22T04:51:23;9.00;99.90
41481;DHT22;27217;51.220;5.308;2023-12-22T04:53:49;8.90;99.90
41481;DHT22;27217;51.220;5.308;2023-12-22T04:56:15;9.00;99.90
41481;DHT22;27217;51.220;5.308;2023-12-22T04:58:41;8.80;99.90
41481;DHT22;27217;51.220;5.308;2023-12-22T05:01:06;8.80;99.90
41481;DHT22;27217;51.220;5.308;2023-12-22T05:03:32;8.60;99.90
41481;DHT22;27217;51.220;5.308;2023-12-22T05:05:58;8.60;99.90
41481;DHT22;27217;51.220;5.308;2023-12-22T05:08:24;8.60;99.90
41481;DHT22;27217;51.220;5.308;2023-12-22T05:10:49;8.60;99.90
41481;DHT22;27217;51.220;5.308;2023-12-22T05:13:15;8.60;99.90
41481;DHT22;27217;51.220;5.308;2023-12-22T05:15:41;8.70;99.90
41481;DHT22;27217;51.220;5.308;2023-12-22T05:18:06;8.70;99.90
41481;DHT22;27217;51.220;5.308;2023-12-22T05:20:35;8.70;99.90
41481;DHT22;27217;51.220;5.308;2023-12-22T05:23:00;8.60;99.90
41481;DHT22;27217;51.220;5.308;2023-12-22T05:25:29;8.70;99.90
41481;DHT22;27217;51.220;5.308;2023-12-22T05:27:55;8.70;99.90
41481;DHT22;27217;51.220;5.308;2023-12-22T05:30:21;8.80;99.90
41481;DHT22;27217;51.220;5.308;2023-12-22T05:32:46;8.90;99.90
41481;DHT22;27217;51.220;5.308;2023-12-22T05:35:12;8.90;99.90
41481;DHT22;27217;51.220;5.308;2023-12-22T05:37:38;8.90;99.90
41481;DHT22;27217;51.220;5.308;2023-12-22T05:40:04;9.10;99.90
41481;DHT22;27217;51.220;5.308;2023-12-22T05:42:32;9.10;99.90
41481;DHT22;27217;51.220;5.308;2023-12-22T05:44:58;9.20;99.90
41481;DHT22;27217;51.220;5.308;2023-12-22T05:47:23;9.20;99.90
41481;DHT22;27217;51.220;5.308;2023-12-22T05:49:49;9.10;99.90
41481;DHT22;27217;51.220;5.308;2023-12-22T05:52:18;9.10;99.90
41481;DHT22;27217;51.220;5.308;2023-12-22T05:54:43;9.00;99.90
41481;DHT22;27217;51.220;5.308;2023-12-22T05:57:09;9.00;99.90
41481;DHT22;27217;51.220;5.308;2023-12-22T05:59:35;9.10;99.90
41481;DHT22;27217;51.220;5.308;2023-12-22T06:02:01;9.10;99.90
41481;DHT22;27217;51.220;5.308;2023-12-22T06:04:26;9.10;99.90
41481;DHT22;27217;51.220;5.308;2023-12-22T06:06:52;9.10;99.90
41481;DHT22;27217;51.220;5.308;2023-12-22T06:09:21;9.00;99.90
41481;DHT22;27217;51.220;5.308;2023-12-22T06:11:47;9.00;99.90
41481;DHT22;27217;51.220;5.308;2023-12-22T06:14:16;8.90;99.90
41481;DHT22;27217;51.220;5.308;2023-12-22T06:16:41;8.90;99.90
41481;DHT22;27217;51.220;5.308;2023-12-22T06:19:07;8.80;99.90
41481;DHT22;27217;51.220;5.308;2023-12-22T06:21:33;8.80;99.90
41481;DHT22;27217;51.220;5.308;2023-12-22T06:23:59;8.90;99.90
41481;DHT22;27217;51.220;5.308;2023-12-22T06:26:24;8.90;99.90
41481;DHT22;27217;51.220;5.308;2023-12-22T06:28:50;8.90;99.90
41481;DHT22;27217;51.220;5.308;2023-12-22T06:31:17;8.90;99.90
41481;DHT22;27217;51.220;5.308;2023-12-22T06:33:44;8.90;99.90
41481;DHT22;27217;51.220;5.308;2023-12-22T06:36:25;9.00;99.90
41481;DHT22;27217;51.220;5.308;2023-12-22T06:38:51;9.10;99.90
41481;DHT22;27217;51.220;5.308;2023-12-22T06:41:22;9.10;99.90
41481;DHT22;27217;51.220;5.308;2023-12-22T06:43:49;9.20;99.90
41481;DHT22;27217;51.220;5.308;2023-12-22T06:46:21;9.10;99.90
41481;DHT22;27217;51.220;5.308;2023-12-22T06:48:48;9.20;99.90
41481;DHT22;27217;51.220;5.308;2023-12-22T06:51:27;9.20;99.90
41481;DHT22;27217;51.220;5.308;2023-12-22T06:53:54;9.20;99.90
41481;DHT22;27217;51.220;5.308;2023-12-22T06:56:24;9.30;99.90
41481;DHT22;27217;51.220;5.308;2023-12-22T06:58:51;9.40;99.90
41481;DHT22;27217;51.220;5.308;2023-12-22T07:01:22;9.40;99.90
41481;DHT22;27217;51.220;5.308;2023-12-22T07:03:49;9.40;99.90
41481;DHT22;27217;51.220;5.308;2023-12-22T07:06:15;9.40;99.90
41481;DHT22;27217;51.220;5.308;2023-12-22T07:08:42;9.40;99.90
41481;DHT22;27217;51.220;5.308;2023-12-22T07:11:09;9.40;99.90
41481;DHT22;27217;51.220;5.308;2023-12-22T07:13:34;9.30;99.90
41481;DHT22;27217;51.220;5.308;2023-12-22T07:16:00;9.40;99.90
41481;DHT22;27217;51.220;5.308;2023-12-22T07:18:30;9.40;99.90
41481;DHT22;27217;51.220;5.308;2023-12-22T07:21:00;9.40;99.90
41481;DHT22;27217;51.220;5.308;2023-12-22T07:23:26;9.40;99.90
41481;DHT22;27217;51.220;5.308;2023-12-22T07:25:52;9.40;99.90
41481;DHT22;27217;51.220;5.308;2023-12-22T07:28:17;9.40;99.90
41481;DHT22;27217;51.220;5.308;2023-12-22T07:30:43;9.40;99.90
41481;DHT22;27217;51.220;5.308;2023-12-22T07:33:15;9.30;99.90
41481;DHT22;27217;51.220;5.308;2023-12-22T07:35:40;9.20;99.90
41481;DHT22;27217;51.220;5.308;2023-12-22T07:38:06;9.10;99.90
41481;DHT22;27217;51.220;5.308;2023-12-22T07:40:32;9.00;99.90
41481;DHT22;27217;51.220;5.308;2023-12-22T07:42:58;9.00;99.90
41481;DHT22;27217;51.220;5.308;2023-12-22T07:45:23;9.00;99.90
41481;DHT22;27217;51.220;5.308;2023-12-22T07:47:49;9.10;99.90
41481;DHT22;27217;51.220;5.308;2023-12-22T07:50:15;9.10;99.90
41481;DHT22;27217;51.220;5.308;2023-12-22T07:52:40;9.10;99.90
41481;DHT22;27217;51.220;5.308;2023-12-22T07:57:42;9.10;99.90
41481;DHT22;27217;51.220;5.308;2023-12-22T08:00:12;9.10;99.90
41481;DHT22;27217;51.220;5.308;2023-12-22T08:02:39;9.00;99.90
41481;DHT22;27217;51.220;5.308;2023-12-22T08:05:04;9.10;99.90
41481;DHT22;27217;51.220;5.308;2023-12-22T08:07:30;9.00;99.90
41481;DHT22;27217;51.220;5.308;2023-12-22T08:09:56;9.20;99.90
41481;DHT22;27217;51.220;5.308;2023-12-22T08:12:22;9.10;99.90
41481;DHT22;27217;51.220;5.308;2023-12-22T08:14:48;9.10;99.90
41481;DHT22;27217;51.220;5.308;2023-12-22T08:17:14;9.00;99.90
41481;DHT22;27217;51.220;5.308;2023-12-22T08:19:42;8.90;99.90
41481;DHT22;27217;51.220;5.308;2023-12-22T08:22:10;9.00;99.90
41481;DHT22;27217;51.220;5.308;2023-12-22T08:24:41;9.00;99.90
41481;DHT22;27217;51.220;5.308;2023-12-22T08:27:08;9.00;99.90
41481;DHT22;27217;51.220;5.308;2023-12-22T08:29:34;8.90;99.90
41481;DHT22;27217;51.220;5.308;2023-12-22T08:32:00;9.00;99.90
41481;DHT22;27217;51.220;5.308;2023-12-22T08:34:27;9.00;99.90
41481;DHT22;27217;51.220;5.308;2023-12-22T08:36:53;8.90;99.90
41481;DHT22;27217;51.220;5.308;2023-12-22T08:39:18;8.90;99.90
41481;DHT22;27217;51.220;5.308;2023-12-22T08:41:45;8.90;99.90
41481;DHT22;27217;51.220;5.308;2023-12-22T08:44:11;8.80;99.90
41481;DHT22;27217;51.220;5.308;2023-12-22T08:46:40;8.70;99.90
41481;DHT22;27217;51.220;5.308;2023-12-22T08:49:06;8.70;99.90
41481;DHT22;27217;51.220;5.308;2023-12-22T08:51:32;8.70;99.90
41481;DHT22;27217;51.220;5.308;2023-12-22T08:53:58;8.80;99.90
41481;DHT22;27217;51.220;5.308;2023-12-22T08:56:27;8.80;99.90
41481;DHT22;27217;51.220;5.308;2023-12-22T08:58:54;8.80;99.90
41481;DHT22;27217;51.220;5.308;2023-12-22T09:01:24;8.80;99.90
41481;DHT22;27217;51.220;5.308;2023-12-22T09:03:50;8.70;99.90
41481;DHT22;27217;51.220;5.308;2023-12-22T09:06:19;8.70;99.90
41481;DHT22;27217;51.220;5.308;2023-12-22T09:08:46;8.80;99.90
41481;DHT22;27217;51.220;5.308;2023-12-22T09:11:13;8.70;99.90
41481;DHT22;27217;51.220;5.308;2023-12-22T09:13:40;8.70;99.90
41481;DHT22;27217;51.220;5.308;2023-12-22T09:16:07;8.70;99.90
41481;DHT22;27217;51.220;5.308;2023-12-22T09:18:33;8.70;99.90
41481;DHT22;27217;51.220;5.308;2023-12-22T09:26:10;8.80;99.90
41481;DHT22;27217;51.220;5.308;2023-12-22T09:28:39;8.80;99.90
41481;DHT22;27217;51.220;5.308;2023-12-22T09:31:06;8.90;99.90
41481;DHT22;27217;51.220;5.308;2023-12-22T09:39:17;8.90;99.90
41481;DHT22;27217;51.220;5.308;2023-12-22T09:45:05;8.90;99.90
41481;DHT22;27217;51.220;5.308;2023-12-22T09:47:33;8.90;99.90
41481;DHT22;27217;51.220;5.308;2023-12-22T09:50:01;9.00;99.90
41481;DHT22;27217;51.220;5.308;2023-12-22T09:52:28;9.00;99.90
41481;DHT22;27217;51.220;5.308;2023-12-22T09:54:56;9.10;99.90
41481;DHT22;27217;51.220;5.308;2023-12-22T09:57:24;9.10;99.90
41481;DHT22;27217;51.220;5.308;2023-12-22T09:59:54;9.20;99.90
41481;DHT22;27217;51.220;5.308;2023-12-22T10:02:21;9.20;99.90
41481;DHT22;27217;51.220;5.308;2023-12-22T10:04:48;9.30;99.90
41481;DHT22;27217;51.220;5.308;2023-12-22T10:07:14;9.30;99.90
41481;DHT22;27217;51.220;5.308;2023-12-22T10:09:41;9.50;99.90
41481;DHT22;27217;51.220;5.308;2023-12-22T10:12:09;9.50;99.90
41481;DHT22;27217;51.220;5.308;2023-12-22T10:14:37;9.60;99.90
41481;DHT22;27217;51.220;5.308;2023-12-22T10:19:35;9.70;99.90
41481;DHT22;27217;51.220;5.308;2023-12-22T10:22:04;9.50;99.90
41481;DHT22;27217;51.220;5.308;2023-12-22T10:24:45;9.50;99.90
41481;DHT22;27217;51.220;5.308;2023-12-22T10:27:16;9.50;99.90
41481;DHT22;27217;51.220;5.308;2023-12-22T10:29:54;9.50;99.90
41481;DHT22;27217;51.220;5.308;2023-12-22T10:32:22;9.50;99.90
41481;DHT22;27217;51.220;5.308;2023-12-22T10:34:50;9.50;99.90
41481;DHT22;27217;51.220;5.308;2023-12-22T10:37:16;9.60;99.90
41481;DHT22;27217;51.220;5.308;2023-12-22T10:39:42;9.60;99.90
41481;DHT22;27217;51.220;5.308;2023-12-22T10:42:09;9.60;99.90
41481;DHT22;27217;51.220;5.308;2023-12-22T10:44:35;9.70;99.90
41481;DHT22;27217;51.220;5.308;2023-12-22T10:47:05;9.80;99.90
41481;DHT22;27217;51.220;5.308;2023-12-22T10:49:32;9.90;99.90
41481;DHT22;27217;51.220;5.308;2023-12-22T10:52:00;9.80;99.90
41481;DHT22;27217;51.220;5.308;2023-12-22T10:54:25;9.90;99.90
41481;DHT22;27217;51.220;5.308;2023-12-22T10:56:58;9.90;99.90
41481;DHT22;27217;51.220;5.308;2023-12-22T10:59:28;10.00;99.90
41481;DHT22;27217;51.220;5.308;2023-12-22T11:01:57;10.10;99.90
41481;DHT22;27217;51.220;5.308;2023-12-22T11:04:29;10.20;99.90
41481;DHT22;27217;51.220;5.308;2023-12-22T11:07:03;10.30;99.90
41481;DHT22;27217;51.220;5.308;2023-12-22T11:09:31;10.30;99.90
41481;DHT22;27217;51.220;5.308;2023-12-22T11:11:57;10.20;99.90
41481;DHT22;27217;51.220;5.308;2023-12-22T11:14:26;10.30;99.90
41481;DHT22;27217;51.220;5.308;2023-12-22T11:16:53;10.30;99.90
41481;DHT22;27217;51.220;5.308;2023-12-22T11:19:20;10.20;99.90
41481;DHT22;27217;51.220;5.308;2023-12-22T11:21:50;10.40;99.90
41481;DHT22;27217;51.220;5.308;2023-12-22T11:24:17;10.40;99.90
41481;DHT22;27217;51.220;5.308;2023-12-22T11:26:45;10.50;99.90
41481;DHT22;27217;51.220;5.308;2023-12-22T11:29:12;10.60;99.90
41481;DHT22;27217;51.220;5.308;2023-12-22T11:31:40;10.60;99.90
41481;DHT22;27217;51.220;5.308;2023-12-22T11:34:07;10.60;99.90
41481;DHT22;27217;51.220;5.308;2023-12-22T11:36:37;10.70;99.90
41481;DHT22;27217;51.220;5.308;2023-12-22T11:39:06;10.50;99.90
41481;DHT22;27217;51.220;5.308;2023-12-22T11:41:34;10.60;99.90
41481;DHT22;27217;51.220;5.308;2023-12-22T11:44:04;10.60;99.90
41481;DHT22;27217;51.220;5.308;2023-12-22T11:46:30;10.50;99.90
41481;DHT22;27217;51.220;5.308;2023-12-22T11:48:56;10.60;99.90
41481;DHT22;27217;51.220;5.308;2023-12-22T11:51:22;10.60;99.90
41481;DHT22;27217;51.220;5.308;2023-12-22T11:53:48;10.60;99.90
41481;DHT22;27217;51.220;5.308;2023-12-22T11:56:13;10.50;99.90
41481;DHT22;27217;51.220;5.308;2023-12-22T11:58:44;10.30;99.90
41481;DHT22;27217;51.220;5.308;2023-12-22T12:01:28;10.20;99.90
41481;DHT22;27217;51.220;5.308;2023-12-22T12:03:57;10.20;99.90
41481;DHT22;27217;51.220;5.308;2023-12-22T12:08:57;10.20;99.90
41481;DHT22;27217;51.220;5.308;2023-12-22T12:12:08;10.30;99.90
41481;DHT22;27217;51.220;5.308;2023-12-22T12:14:32;10.40;99.90
41481;DHT22;27217;51.220;5.308;2023-12-22T12:17:07;10.40;99.90
41481;DHT22;27217;51.220;5.308;2023-12-22T12:19:39;10.60;99.90
41481;DHT22;27217;51.220;5.308;2023-12-22T12:22:07;10.70;99.90
41481;DHT22;27217;51.220;5.308;2023-12-22T12:24:33;10.70;99.90
41481;DHT22;27217;51.220;5.308;2023-12-22T12:26:59;10.70;99.90
41481;DHT22;27217;51.220;5.308;2023-12-22T12:29:24;10.80;99.90
41481;DHT22;27217;51.220;5.308;2023-12-22T12:31:51;10.80;99.90
41481;DHT22;27217;51.220;5.308;2023-12-22T12:34:17;10.80;99.90
41481;DHT22;27217;51.220;5.308;2023-12-22T12:36:55;10.70;99.90
41481;DHT22;27217;51.220;5.308;2023-12-22T12:39:22;10.70;99.90
41481;DHT22;27217;51.220;5.308;2023-12-22T12:41:54;10.70;99.90
41481;DHT22;27217;51.220;5.308;2023-12-22T12:44:22;10.60;99.90
41481;DHT22;27217;51.220;5.308;2023-12-22T12:46:51;10.60;99.90
41481;DHT22;27217;51.220;5.308;2023-12-22T12:49:18;10.80;99.90
41481;DHT22;27217;51.220;5.308;2023-12-22T12:51:47;10.70;99.90
41481;DHT22;27217;51.220;5.308;2023-12-22T12:54:14;10.80;99.90
41481;DHT22;27217;51.220;5.308;2023-12-22T12:56:41;10.90;99.90
41481;DHT22;27217;51.220;5.308;2023-12-22T12:59:11;10.80;99.90
41481;DHT22;27217;51.220;5.308;2023-12-22T13:01:42;10.70;99.90
41481;DHT22;27217;51.220;5.308;2023-12-22T13:04:08;10.60;99.90
41481;DHT22;27217;51.220;5.308;2023-12-22T13:06:34;10.70;99.90
41481;DHT22;27217;51.220;5.308;2023-12-22T13:09:03;10.70;99.90
41481;DHT22;27217;51.220;5.308;2023-12-22T13:11:30;10.80;99.90
41481;DHT22;27217;51.220;5.308;2023-12-22T13:13:56;10.80;99.90
41481;DHT22;27217;51.220;5.308;2023-12-22T13:16:24;10.70;99.90
41481;DHT22;27217;51.220;5.308;2023-12-22T13:18:57;10.60;99.90
41481;DHT22;27217;51.220;5.308;2023-12-22T13:21:24;10.50;99.90
41481;DHT22;27217;51.220;5.308;2023-12-22T13:26:44;10.50;99.90
41481;DHT22;27217;51.220;5.308;2023-12-22T13:29:11;10.50;99.90
41481;DHT22;27217;51.220;5.308;2023-12-22T13:31:38;10.60;99.90
41481;DHT22;27217;51.220;5.308;2023-12-22T13:34:11;10.80;99.90
41481;DHT22;27217;51.220;5.308;2023-12-22T13:36:37;10.80;99.90
41481;DHT22;27217;51.220;5.308;2023-12-22T13:39:05;10.80;99.90
41481;DHT22;27217;51.220;5.308;2023-12-22T13:41:52;10.70;99.90
41481;DHT22;27217;51.220;5.308;2023-12-22T13:44:17;10.70;99.90
41481;DHT22;27217;51.220;5.308;2023-12-22T13:46:43;10.80;99.90
41481;DHT22;27217;51.220;5.308;2023-12-22T13:49:11;10.90;99.90
41481;DHT22;27217;51.220;5.308;2023-12-22T13:51:44;10.90;99.90
41481;DHT22;27217;51.220;5.308;2023-12-22T13:54:10;10.90;99.90
41481;DHT22;27217;51.220;5.308;2023-12-22T13:56:37;10.80;99.90
41481;DHT22;27217;51.220;5.308;2023-12-22T13:59:05;10.80;99.90
41481;DHT22;27217;51.220;5.308;2023-12-22T14:01:31;10.80;99.90
41481;DHT22;27217;51.220;5.308;2023-12-22T14:04:01;10.90;99.90
41481;DHT22;27217;51.220;5.308;2023-12-22T14:06:27;10.80;99.90
41481;DHT22;27217;51.220;5.308;2023-12-22T14:08:53;10.90;99.90
41481;DHT22;27217;51.220;5.308;2023-12-22T14:11:20;11.00;99.90
41481;DHT22;27217;51.220;5.308;2023-12-22T14:13:48;11.00;99.90
41481;DHT22;27217;51.220;5.308;2023-12-22T14:16:17;10.90;99.90
41481;DHT22;27217;51.220;5.308;2023-12-22T14:18:43;10.80;99.90
41481;DHT22;27217;51.220;5.308;2023-12-22T14:21:10;10.80;99.90
41481;DHT22;27217;51.220;5.308;2023-12-22T14:23:35;10.70;99.90
41481;DHT22;27217;51.220;5.308;2023-12-22T14:26:01;10.80;99.90
41481;DHT22;27217;51.220;5.308;2023-12-22T14:28:27;10.80;99.90
41481;DHT22;27217;51.220;5.308;2023-12-22T14:30:53;10.80;99.90
41481;DHT22;27217;51.220;5.308;2023-12-22T14:33:19;10.80;99.90
41481;DHT22;27217;51.220;5.308;2023-12-22T14:35:44;10.60;99.90
41481;DHT22;27217;51.220;5.308;2023-12-22T14:38:10;10.50;99.90
41481;DHT22;27217;51.220;5.308;2023-12-22T14:40:39;10.40;99.90
41481;DHT22;27217;51.220;5.308;2023-12-22T14:43:05;10.50;99.90
41481;DHT22;27217;51.220;5.308;2023-12-22T14:45:31;10.40;99.90
41481;DHT22;27217;51.220;5.308;2023-12-22T14:47:56;10.40;99.90
41481;DHT22;27217;51.220;5.308;2023-12-22T14:50:22;10.40;99.90
41481;DHT22;27217;51.220;5.308;2023-12-22T14:52:50;10.50;99.90
41481;DHT22;27217;51.220;5.308;2023-12-22T14:55:16;10.50;99.90
41481;DHT22;27217;51.220;5.308;2023-12-22T14:57:43;10.60;99.90
41481;DHT22;27217;51.220;5.308;2023-12-22T15:00:09;10.60;99.90
41481;DHT22;27217;51.220;5.308;2023-12-22T15:02:35;10.70;99.90
41481;DHT22;27217;51.220;5.308;2023-12-22T15:05:00;10.80;99.90
41481;DHT22;27217;51.220;5.308;2023-12-22T15:07:26;10.80;99.90
41481;DHT22;27217;51.220;5.308;2023-12-22T15:09:52;10.70;99.90
41481;DHT22;27217;51.220;5.308;2023-12-22T15:12:18;10.80;99.90
41481;DHT22;27217;51.220;5.308;2023-12-22T15:14:47;10.80;99.90
41481;DHT22;27217;51.220;5.308;2023-12-22T15:17:13;10.80;99.90
41481;DHT22;27217;51.220;5.308;2023-12-22T15:19:43;10.80;99.90
41481;DHT22;27217;51.220;5.308;2023-12-22T15:22:10;10.80;99.90
41481;DHT22;27217;51.220;5.308;2023-12-22T15:24:42;10.90;99.90
41481;DHT22;27217;51.220;5.308;2023-12-22T15:27:11;10.90;99.90
41481;DHT22;27217;51.220;5.308;2023-12-22T15:29:37;10.90;99.90
41481;DHT22;27217;51.220;5.308;2023-12-22T15:32:04;10.90;99.90
41481;DHT22;27217;51.220;5.308;2023-12-22T15:34:29;10.90;99.90
41481;DHT22;27217;51.220;5.308;2023-12-22T15:36:55;10.80;99.90
41481;DHT22;27217;51.220;5.308;2023-12-22T15:39:21;10.90;99.90
41481;DHT22;27217;51.220;5.308;2023-12-22T15:41:47;10.80;99.90
41481;DHT22;27217;51.220;5.308;2023-12-22T15:44:13;10.70;99.90
41481;DHT22;27217;51.220;5.308;2023-12-22T15:46:42;10.70;99.90
41481;DHT22;27217;51.220;5.308;2023-12-22T15:49:07;10.70;99.90
41481;DHT22;27217;51.220;5.308;2023-12-22T15:51:33;10.70;99.90
41481;DHT22;27217;51.220;5.308;2023-12-22T15:54:00;10.80;99.90
41481;DHT22;27217;51.220;5.308;2023-12-22T15:56:26;10.80;99.90
41481;DHT22;27217;51.220;5.308;2023-12-22T15:58:51;10.80;99.90
41481;DHT22;27217;51.220;5.308;2023-12-22T16:01:17;10.80;99.90
41481;DHT22;27217;51.220;5.308;2023-12-22T16:03:44;10.80;99.90
41481;DHT22;27217;51.220;5.308;2023-12-22T16:06:16;10.80;99.90